Time;durP1;ratioP1;P1;durP2;ratioP2;P2;SDS_P1;SDS_P2;PMS_P1;PMS_P2;Temp;Humidity;BMP_temperature;BMP_pressure;BME280_temperature;BME280_humidity;BME280_pressure;Samples;Min_cycle;Max_cycle;Signal;HPM_P1;HPM_P2
2023/09/27 00:00:30;;;;;;;1999.90;999.90;;;;;;;12.86;100.00;95069.16;5064589;28;20173;-47
2023/09/27 00:02:56;;;;;;;1999.90;999.90;;;;;;;12.77;100.00;95069.72;5064211;28;20478;-46
2023/09/27 00:05:21;;;;;;;1999.90;999.90;;;;;;;12.73;100.00;95074.50;5064283;28;20221;-45
2023/09/27 00:07:46;;;;;;;1999.90;999.90;;;;;;;12.69;100.00;95081.25;5063800;28;20181;-44
2023/09/27 00:10:12;;;;;;;1999.90;999.90;;;;;;;12.65;100.00;95086.03;5064251;28;20190;-44
2023/09/27 00:12:38;;;;;;;1999.90;999.90;;;;;;;12.69;100.00;95084.00;5064089;28;20178;-44
2023/09/27 00:15:06;;;;;;;1999.90;999.90;;;;;;;12.66;100.00;95082.09;5064084;28;20181;-45
2023/09/27 00:17:31;;;;;;;1999.90;999.90;;;;;;;12.60;100.00;95083.78;5064119;28;20204;-44
2023/09/27 00:19:57;;;;;;;1999.90;999.90;;;;;;;12.60;100.00;95083.78;5064814;28;20174;-44
2023/09/27 00:22:24;;;;;;;1999.90;999.90;;;;;;;12.52;100.00;95077.69;5064390;28;20222;-44
2023/09/27 00:24:50;;;;;;;1999.90;999.90;;;;;;;12.51;100.00;95086.34;5063968;28;20178;-44
2023/09/27 00:27:16;;;;;;;1999.90;999.90;;;;;;;12.51;100.00;95078.13;5064408;28;20253;-45
2023/09/27 00:29:41;;;;;;;1999.90;999.90;;;;;;;12.49;100.00;95067.59;5064426;28;20181;-43
2023/09/27 00:32:06;;;;;;;1999.90;999.90;;;;;;;12.49;100.00;95061.31;5063823;28;20183;-43
2023/09/27 00:34:32;;;;;;;1999.90;999.90;;;;;;;12.49;100.00;95061.31;5064665;28;20244;-45
2023/09/27 00:36:57;;;;;;;1999.90;999.90;;;;;;;12.48;100.00;95062.53;5063502;28;20197;-44
2023/09/27 00:39:23;;;;;;;1999.90;999.90;;;;;;;12.47;100.00;95060.97;5063810;28;20177;-44
2023/09/27 00:41:48;;;;;;;1999.90;999.90;;;;;;;12.46;100.00;95059.44;5063667;28;20212;-46
2023/09/27 00:44:14;;;;;;;1999.90;999.90;;;;;;;12.46;100.00;95051.22;5063948;28;20205;-44
2023/09/27 00:46:39;;;;;;;1999.90;999.90;;;;;;;12.45;100.00;95060.63;5063800;28;20189;-43
2023/09/27 00:49:05;;;;;;;1999.90;999.90;;;;;;;12.44;100.00;95059.09;5063701;28;20183;-47
2023/09/27 00:51:31;;;;;;;1999.90;999.90;;;;;;;12.41;100.00;95046.22;5063605;28;20174;-45
2023/09/27 00:53:58;;;;;;;1999.90;999.90;;;;;;;12.39;100.00;95054.13;5063666;28;20181;-45
2023/09/27 00:56:25;;;;;;;1999.90;999.90;;;;;;;12.37;100.00;95048.28;5063779;28;20489;-47
2023/09/27 00:58:52;;;;;;;1999.90;999.90;;;;;;;12.34;100.00;95054.59;5063629;28;20268;-51
2023/09/27 01:01:18;;;;;;;1999.90;999.90;;;;;;;12.33;100.00;95058.53;5063473;28;20247;-46
2023/09/27 01:03:44;;;;;;;1999.90;999.90;;;;;;;12.33;100.00;95058.53;5064028;28;20177;-44
2023/09/27 01:06:11;;;;;;;1999.90;999.90;;;;;;;12.35;100.00;95058.91;5063347;28;20210;-46
2023/09/27 01:08:36;;;;;;;1999.90;999.90;;;;;;;12.33;100.00;95058.53;5063484;28;20169;-44
2023/09/27 01:11:03;;;;;;;1999.90;999.90;;;;;;;12.30;100.00;95053.91;5063730;28;20395;-44
2023/09/27 01:13:29;;;;;;;1999.90;999.90;;;;;;;12.31;100.00;95055.47;5063942;28;20233;-47
2023/09/27 01:15:54;;;;;;;1999.90;999.90;;;;;;;12.22;100.00;95050.53;5063483;28;20180;-48
2023/09/27 01:18:19;;;;;;;1999.90;999.90;;;;;;;12.16;100.00;95056.91;5063387;28;20442;-45
2023/09/27 01:20:45;;;;;;;1999.90;999.90;;;;;;;12.12;100.00;95048.00;5065965;28;20330;-44
2023/09/27 01:23:10;;;;;;;1999.90;999.90;;;;;;;12.06;100.00;95066.88;5067319;28;20177;-44
2023/09/27 01:25:37;;;;;;;1999.90;999.90;;;;;;;12.05;100.00;95070.81;5067829;28;20173;-44
2023/09/27 01:28:05;;;;;;;1999.90;999.90;;;;;;;12.03;100.00;95066.97;5067697;28;20184;-44
2023/09/27 01:30:34;;;;;;;1999.90;999.90;;;;;;;12.01;100.00;95063.84;5067742;28;20169;-45
2023/09/27 01:33:10;;;;;;;1999.90;999.90;;;;;;;12.00;100.00;95062.31;5067091;28;20176;-46
2023/09/27 01:35:42;;;;;;;1999.90;999.90;;;;;;;12.03;100.00;95053.28;5067680;28;20162;-44
2023/09/27 01:38:09;;;;;;;1999.90;999.90;;;;;;;12.04;100.00;95058.34;5067519;28;20169;-46
2023/09/27 01:40:38;;;;;;;1999.90;999.90;;;;;;;12.07;100.00;95048.50;5067091;28;20173;-49
2023/09/27 01:43:04;;;;;;;1999.90;999.90;;;;;;;12.05;100.00;95048.13;5066939;28;20259;-47
2023/09/27 01:45:30;;;;;;;1999.90;999.90;;;;;;;12.02;100.00;95047.03;5067049;28;20170;-46
2023/09/27 01:47:56;;;;;;;1999.90;999.90;;;;;;;12.02;100.00;95035.31;5066835;28;20173;-45
2023/09/27 01:50:24;;;;;;;1999.90;999.90;;;;;;;12.02;100.00;95032.59;5067083;28;20197;-45
2023/09/27 01:52:50;;;;;;;1999.90;999.90;;;;;;;11.99;100.00;95033.41;5067198;28;20219;-46
2023/09/27 01:55:15;;;;;;;1999.90;999.90;;;;;;;11.95;100.00;95038.19;5066785;28;20184;-44
2023/09/27 01:57:41;;;;;;;1999.90;999.90;;;;;;;11.88;100.00;95047.28;5066609;28;20190;-46
2023/09/27 02:00:11;;;;;;;1999.90;999.90;;;;;;;11.88;100.00;95047.28;5067159;28;20178;-44
2023/09/27 02:02:56;;;;;;;1999.90;999.90;;;;;;;11.85;100.00;95045.41;5066979;28;20201;-44
2023/09/27 02:05:21;;;;;;;1999.90;999.90;;;;;;;11.87;100.00;95032.06;5066506;28;20213;-44
2023/09/27 02:07:47;;;;;;;1999.90;999.90;;;;;;;11.86;100.00;95029.75;5066516;28;20240;-47
2023/09/27 02:10:13;;;;;;;1999.90;999.90;;;;;;;11.83;100.00;95028.63;5066942;28;20177;-44
2023/09/27 02:12:39;;;;;;;1999.90;999.90;;;;;;;11.81;100.00;95027.50;5066933;28;20185;-44
2023/09/27 02:15:05;;;;;;;1999.90;999.90;;;;;;;11.78;100.00;95023.66;5066327;28;20174;-45
2023/09/27 02:17:31;;;;;;;1999.90;999.90;;;;;;;11.75;100.00;95023.72;5066250;28;20227;-43
2023/09/27 02:19:56;;;;;;;1999.90;999.90;;;;;;;11.72;100.00;95010.88;5066808;28;20177;-44
2023/09/27 02:22:22;;;;;;;1999.90;999.90;;;;;;;11.71;100.00;94998.38;5066143;28;20277;-44
2023/09/27 02:24:48;;;;;;;1999.90;999.90;;;;;;;11.70;100.00;94983.16;5066787;28;20185;-46
2023/09/27 02:27:14;;;;;;;1999.90;999.90;;;;;;;11.70;100.00;94985.91;5066050;28;20201;-44
2023/09/27 02:29:41;;;;;;;1999.90;999.90;;;;;;;11.69;100.00;94971.44;5066128;28;20177;-44
2023/09/27 02:32:07;;;;;;;1999.90;999.90;;;;;;;11.68;100.00;94964.44;5065254;28;20180;-44
2023/09/27 02:34:33;;;;;;;1999.90;999.90;;;;;;;11.63;100.00;94967.69;5066535;28;20173;-45
2023/09/27 02:36:58;;;;;;;1999.90;999.90;;;;;;;11.67;100.00;94967.59;5066444;28;20191;-43
2023/09/27 02:39:25;;;;;;;1999.90;999.90;;;;;;;11.65;100.00;94964.53;5066399;28;20343;-44
2023/09/27 02:41:50;;;;;;;1999.90;999.90;;;;;;;11.62;100.00;94959.88;5066542;28;20224;-43
2023/09/27 02:44:15;;;;;;;1999.90;999.90;;;;;;;11.61;100.00;94963.78;5065794;28;20172;-45
2023/09/27 02:46:41;;;;;;;1999.90;999.90;;;;;;;11.61;100.00;94959.09;5065796;28;20176;-45
2023/09/27 02:49:07;;;;;;;1999.90;999.90;;;;;;;11.60;100.00;94951.28;5065677;28;20401;-44
2023/09/27 02:51:32;;;;;;;1999.90;999.90;;;;;;;11.62;100.00;94946.22;5065697;28;20220;-45
2023/09/27 02:53:58;;;;;;;1999.90;999.90;;;;;;;11.61;100.00;94941.91;5065633;28;20183;-45
2023/09/27 02:56:23;;;;;;;1999.90;999.90;;;;;;;11.59;100.00;94941.56;5066302;28;20223;-45
2023/09/27 02:58:49;;;;;;;1999.90;999.90;;;;;;;11.58;100.00;94940.00;5065512;28;20208;-45
2023/09/27 03:01:14;;;;;;;1999.90;999.90;;;;;;;11.57;100.00;94941.19;5066151;28;20215;-45
2023/09/27 03:03:40;;;;;;;1999.90;999.90;;;;;;;11.56;100.00;94936.91;5065429;28;20188;-45
2023/09/27 03:06:12;;;;;;;1999.90;999.90;;;;;;;11.56;100.00;94934.19;5065122;28;20220;-44
2023/09/27 03:08:39;;;;;;;1999.90;999.90;;;;;;;11.58;100.00;94931.81;5065731;28;20183;-45
2023/09/27 03:11:04;;;;;;;1999.90;999.90;;;;;;;11.57;100.00;94925.56;5065034;28;20490;-44
2023/09/27 03:13:30;;;;;;;1999.90;999.90;;;;;;;11.58;100.00;94929.06;5065295;28;20184;-45
2023/09/27 03:15:56;;;;;;;1999.90;999.90;;;;;;;11.54;100.00;94936.59;5065687;28;20192;-44
2023/09/27 03:18:22;;;;;;;1999.90;999.90;;;;;;;11.48;100.00;94935.50;5065134;28;20261;-44
2023/09/27 03:20:47;;;;;;;1999.90;999.90;;;;;;;11.44;100.00;94948.47;5065575;28;20180;-45
2023/09/27 03:23:13;;;;;;;1999.90;999.90;;;;;;;11.42;100.00;94953.59;5065314;28;20182;-46
2023/09/27 03:25:38;;;;;;;1999.90;999.90;;;;;;;11.40;100.00;94950.50;5065459;28;20177;-46
2023/09/27 03:28:04;;;;;;;1999.90;999.90;;;;;;;11.34;100.00;94963.91;5065134;28;20183;-47
2023/09/27 03:30:30;;;;;;;1999.90;999.90;;;;;;;11.30;100.00;94970.59;5064933;28;20243;-46
2023/09/27 03:32:55;;;;;;;1999.90;999.90;;;;;;;11.25;100.00;94980.06;5065223;28;20219;-46
2023/09/27 03:35:21;;;;;;;1999.90;999.90;;;;;;;11.24;100.00;94980.47;5064793;28;20174;-48
2023/09/27 03:37:47;;;;;;;1999.90;999.90;;;;;;;11.26;100.00;94983.56;5064734;28;20177;-46
2023/09/27 03:40:15;;;;;;;1999.90;999.90;;;;;;;11.29;100.00;94985.47;5065168;28;20283;-44
2023/09/27 03:42:42;;;;;;;1999.90;999.90;;;;;;;11.29;100.00;94996.41;5064840;28;20498;-45
2023/09/27 03:45:08;;;;;;;1999.90;999.90;;;;;;;11.27;100.00;94999.56;5064600;28;20412;-46
2023/09/27 03:47:33;;;;;;;1999.90;999.90;;;;;;;11.25;100.00;95012.84;5064641;28;20184;-44
2023/09/27 03:49:59;;;;;;;1999.90;999.90;;;;;;;11.26;100.00;95019.09;5065431;28;20248;-44
2023/09/27 03:52:24;;;;;;;1999.90;999.90;;;;;;;11.24;100.00;95013.25;5065012;28;20181;-43
2023/09/27 03:54:49;;;;;;;1999.90;999.90;;;;;;;11.25;100.00;95007.38;5064506;28;20219;-46
2023/09/27 03:57:15;;;;;;;1999.90;999.90;;;;;;;11.22;100.00;95026.59;5064427;28;20208;-45
2023/09/27 03:59:40;;;;;;;1999.90;999.90;;;;;;;11.20;100.00;95039.88;5064347;28;20176;-43
2023/09/27 04:02:05;;;;;;;1999.90;999.90;;;;;;;11.17;100.00;95043.44;5064745;28;20270;-44
2023/09/27 04:04:31;;;;;;;1999.90;999.90;;;;;;;11.15;100.00;95045.84;5063980;28;20228;-45
2023/09/27 04:06:56;;;;;;;1999.90;999.90;;;;;;;11.18;100.00;95055.94;5064263;28;20180;-44
2023/09/27 04:09:21;;;;;;;1999.90;999.90;;;;;;;11.18;100.00;95055.94;5064247;28;20234;-46
2023/09/27 04:11:48;;;;;;;1999.90;999.90;;;;;;;11.20;100.00;95067.22;5064781;28;20192;-47
2023/09/27 04:14:13;;;;;;;1999.90;999.90;;;;;;;11.22;100.00;95068.34;5064105;28;20185;-44
2023/09/27 04:16:39;;;;;;;1999.90;999.90;;;;;;;11.23;100.00;95058.19;5064108;28;20409;-44
2023/09/27 04:19:04;;;;;;;1999.90;999.90;;;;;;;11.27;100.00;95054.22;5064357;28;20219;-44
2023/09/27 04:21:30;;;;;;;1999.90;999.90;;;;;;;11.30;100.00;95049.88;5063921;28;20209;-44
2023/09/27 04:23:56;;;;;;;1999.90;999.90;;;;;;;11.28;100.00;95046.78;5064543;28;20181;-43
2023/09/27 04:26:23;;;;;;;1999.90;999.90;;;;;;;11.22;100.00;95051.19;5063955;28;20253;-43
2023/09/27 04:28:50;;;;;;;1999.90;999.90;;;;;;;11.18;100.00;95061.41;5064359;28;20205;-43
2023/09/27 04:31:16;;;;;;;1999.90;999.90;;;;;;;11.15;100.00;95073.91;5064367;28;20185;-46
2023/09/27 04:33:44;;;;;;;1999.90;999.90;;;;;;;11.10;100.00;95082.59;5064352;28;20177;-44
2023/09/27 04:36:15;;;;;;;1999.90;999.90;;;;;;;11.09;100.00;95102.13;5064294;28;20177;-44
2023/09/27 04:38:41;;;;;;;1999.90;999.90;;;;;;;11.03;100.00;95103.81;5064397;28;20178;-45
2023/09/27 04:41:06;;;;;;;1999.90;999.90;;;;;;;11.01;100.00;95111.63;5063610;28;20200;-44
2023/09/27 04:43:32;;;;;;;1999.90;999.90;;;;;;;11.01;100.00;95117.09;5063702;28;20199;-44
2023/09/27 04:45:57;;;;;;;1999.90;999.90;;;;;;;11.02;100.00;95113.16;5064434;28;20176;-46
2023/09/27 04:48:22;;;;;;;1999.90;999.90;;;;;;;11.06;100.00;95105.69;5063706;28;20184;-44
2023/09/27 04:50:48;;;;;;;1999.90;999.90;;;;;;;11.07;100.00;95093.59;5064093;28;20224;-44
2023/09/27 04:53:13;;;;;;;1999.90;999.90;;;;;;;11.08;100.00;95095.13;5064161;28;20248;-44
2023/09/27 04:55:39;;;;;;;1999.90;999.90;;;;;;;11.07;100.00;95080.69;5065818;28;20183;-43
2023/09/27 04:58:04;;;;;;;1999.90;999.90;;;;;;;11.10;100.00;95076.34;5067954;28;20215;-45
2023/09/27 05:00:29;;;;;;;1999.90;999.90;;;;;;;11.09;100.00;95072.06;5067667;28;20219;-45
2023/09/27 05:02:55;;;;;;;1999.90;999.90;;;;;;;11.06;100.00;95078.38;5067611;28;20199;-43
2023/09/27 05:05:20;;;;;;;1999.90;999.90;;;;;;;11.05;100.00;95071.38;5067295;28;20251;-44
2023/09/27 05:07:46;;;;;;;1999.90;999.90;;;;;;;11.03;100.00;95076.47;5068045;28;20187;-44
2023/09/27 05:10:12;;;;;;;1999.90;999.90;;;;;;;11.03;100.00;95074.50;5067447;28;20243;-44
2023/09/27 05:12:38;;;;;;;1999.90;999.90;;;;;;;11.04;100.00;95072.56;5068247;28;20179;-44
2023/09/27 05:15:04;;;;;;;1999.90;999.90;;;;;;;11.05;100.00;95074.09;5067961;28;20357;-47
2023/09/27 05:17:30;;;;;;;1999.90;999.90;;;;;;;11.09;100.00;95074.81;5067942;28;20176;-44
2023/09/27 05:19:55;;;;;;;1999.90;999.90;;;;;;;11.16;100.00;95080.16;5067395;28;20245;-47
2023/09/27 05:22:20;;;;;;;1999.90;999.90;;;;;;;11.23;100.00;95074.59;5067824;28;20212;-45
2023/09/27 05:24:46;;;;;;;1999.90;999.90;;;;;;;11.33;100.00;95073.66;5067134;28;20177;-45
2023/09/27 05:27:13;;;;;;;1999.90;999.90;;;;;;;11.44;100.00;95063.31;5067624;28;20177;-46
2023/09/27 05:29:39;;;;;;;1999.90;999.90;;;;;;;11.51;100.00;95063.97;5067101;28;20201;-45
2023/09/27 05:32:04;;;;;;;1999.90;999.90;;;;;;;11.57;100.00;95078.72;5066800;28;20224;-46
2023/09/27 05:34:33;;;;;;;1999.90;999.90;;;;;;;11.68;100.00;95084.00;5067019;28;20188;-44
2023/09/27 05:36:59;;;;;;;1999.90;999.90;;;;;;;11.77;100.00;95108.88;5067593;28;20280;-45
2023/09/27 05:39:25;;;;;;;1999.90;999.90;;;;;;;11.96;100.00;95111.66;5067608;28;20174;-44
2023/09/27 05:41:50;;;;;;;1999.90;999.90;;;;;;;12.38;100.00;95130.00;5067042;28;20495;-46
2023/09/27 05:44:16;;;;;;;1999.90;999.90;;;;;;;12.56;100.00;95155.09;5066729;28;20173;-49
2023/09/27 05:46:43;;;;;;;1999.90;999.90;;;;;;;12.63;100.00;95198.00;5066812;28;20241;-45
2023/09/27 05:49:10;;;;;;;1999.90;999.90;;;;;;;12.69;100.00;95240.16;5067241;28;20182;-46
2023/09/27 05:51:36;;;;;;;1999.90;999.90;;;;;;;13.16;100.00;95272.53;5067191;28;20497;-47
2023/09/27 05:54:02;;;;;;;1999.90;999.90;;;;;;;13.77;100.00;95313.97;5067429;28;20177;-45
2023/09/27 05:56:28;;;;;;;1999.90;999.90;;;;;;;14.55;100.00;95382.47;5066683;28;20174;-45
2023/09/27 05:58:54;;;;;;;1999.90;999.90;;;;;;;15.32;100.00;95471.31;5066372;28;20265;-45
2023/09/27 06:01:20;;;;;;;1999.90;999.90;;;;;;;15.72;100.00;95602.06;5066963;28;20228;-46
2023/09/27 06:03:49;;;;;;;1999.90;999.90;;;;;;;16.02;100.00;95689.84;5066488;28;20177;-47
2023/09/27 06:06:14;;;;;;;1999.90;999.90;;;;;;;16.70;100.00;95755.13;5066698;28;20185;-45
2023/09/27 06:08:41;;;;;;;1999.90;999.90;;;;;;;16.97;100.00;95802.50;5066331;28;20196;-48
2023/09/27 06:11:07;;;;;;;1999.90;999.90;;;;;;;17.21;100.00;95834.97;5066385;28;20174;-45
2023/09/27 06:13:33;;;;;;;1999.90;999.90;;;;;;;17.89;100.00;95851.25;5066301;28;20486;-51
2023/09/27 06:16:01;;;;;;;1999.90;999.90;;;;;;;18.31;100.00;95869.31;5066317;28;20173;-51
2023/09/27 06:18:27;;;;;;;1999.90;999.90;;;;;;;18.56;100.00;95872.91;5066477;28;20174;-45
2023/09/27 06:20:52;;;;;;;1999.90;999.90;;;;;;;18.70;100.00;95888.28;5066307;28;20253;-46
2023/09/27 06:23:19;;;;;;;1999.90;999.90;;;;;;;18.79;100.00;95891.94;5066000;28;20178;-46
2023/09/27 06:25:46;;;;;;;1999.90;999.90;;;;;;;19.26;100.00;95881.69;5066164;28;20174;-45
2023/09/27 06:28:13;;;;;;;1999.90;999.90;;;;;;;19.54;100.00;95888.25;5066065;28;20192;-46
2023/09/27 06:30:41;;;;;;;1999.90;999.90;;;;;;;19.70;100.00;95890.84;5066624;28;20173;-46
2023/09/27 06:33:08;;;;;;;1999.90;999.90;;;;;;;20.20;100.00;95892.59;5066405;28;20184;-46
2023/09/27 06:35:35;;;;;;;1999.90;999.90;;;;;;;20.56;100.00;95896.38;5065958;28;20174;-46
2023/09/27 06:38:00;;;;;;;1999.90;999.90;;;;;;;20.87;100.00;95890.78;5065800;28;20196;-45
2023/09/27 06:40:26;;;;;;;1999.90;999.90;;;;;;;20.79;100.00;95890.28;5065758;28;20178;-47
2023/09/27 06:42:51;;;;;;;1999.90;999.90;;;;;;;20.71;100.00;95905.69;5066173;28;20410;-46
2023/09/27 06:45:17;;;;;;;1999.90;999.90;;;;;;;20.70;100.00;95904.16;5065769;28;20201;-46
2023/09/27 06:47:45;;;;;;;1999.90;999.90;;;;;;;21.12;100.00;95907.25;5066294;28;20173;-47
2023/09/27 06:50:12;;;;;;;1999.90;999.90;;;;;;;20.87;100.00;95902.66;5066228;28;20231;-45
2023/09/27 06:52:39;;;;;;;1999.90;999.90;;;;;;;20.81;100.00;95898.94;5065564;28;20216;-45
2023/09/27 06:55:12;;;;;;;1999.90;999.90;;;;;;;21.39;100.00;95899.75;5065606;28;20177;-49
2023/09/27 06:57:41;;;;;;;1999.90;999.90;;;;;;;21.91;100.00;95907.06;5065975;28;20189;-45
2023/09/27 07:00:10;;;;;;;1999.90;999.90;;;;;;;22.80;100.00;95899.03;5065954;28;20178;-46
2023/09/27 07:02:35;;;;;;;1999.90;999.90;;;;;;;23.19;100.00;95898.69;5065901;28;20239;-48
2023/09/27 07:05:01;;;;;;;1999.90;999.90;;;;;;;23.94;100.00;95902.09;5065182;28;20289;-46
2023/09/27 07:07:29;;;;;;;1999.90;999.90;;;;;;;24.39;100.00;95901.66;5065828;28;20170;-46
2023/09/27 07:09:55;;;;;;;1999.90;999.90;;;;;;;24.60;100.00;95900.53;5066101;28;20177;-45
2023/09/27 07:12:21;;;;;;;1999.90;999.90;;;;;;;24.95;100.00;95902.16;5065194;28;20170;-45
2023/09/27 07:14:46;;;;;;;1999.90;999.90;;;;;;;25.00;100.00;95906.28;5065558;28;20300;-46
2023/09/27 07:17:11;;;;;;;1999.90;999.90;;;;;;;25.25;100.00;95914.03;5064812;28;20178;-47
2023/09/27 07:19:37;;;;;;;1999.90;999.90;;;;;;;25.71;100.00;95911.41;5064732;28;20181;-44
2023/09/27 07:22:08;;;;;;;1999.90;999.90;;;;;;;26.81;100.00;95919.00;5064738;28;20198;-45
2023/09/27 07:24:35;;;;;;;1999.90;999.90;;;;;;;26.98;100.00;95919.94;5065839;28;20170;-45
2023/09/27 07:27:00;;;;;;;1999.90;999.90;;;;;;;26.98;100.00;95910.78;5064691;28;20170;-54
2023/09/27 07:29:27;;;;;;;1999.90;999.90;;;;;;;27.22;100.00;95914.81;5065454;28;20169;-56
2023/09/27 07:31:52;;;;;;;1999.90;999.90;;;;;;;27.30;100.00;95915.88;5064587;28;20170;-50
2023/09/27 07:34:17;;;;;;;1999.90;999.90;;;;;;;27.64;100.00;95905.63;5065243;28;20177;-53
2023/09/27 07:36:44;;;;;;;1999.90;999.90;;;;;;;27.63;100.00;95918.09;5064852;28;20172;-55
2023/09/27 07:39:09;;;;;;;1999.90;999.90;;;;;;;27.63;100.00;95918.09;5064721;28;20166;-55
2023/09/27 07:41:35;;;;;;;1999.90;999.90;;;;;;;27.63;100.00;95918.09;5064637;28;20200;-52
2023/09/27 07:44:06;;;;;;;1999.90;999.90;;;;;;;28.18;100.00;95909.94;5064791;28;20170;-55
2023/09/27 07:46:32;;;;;;;1999.90;999.90;;;;;;;27.88;100.00;95909.59;5065067;28;20178;-53
2023/09/27 07:48:57;;;;;;;1999.90;999.90;;;;;;;28.08;100.00;95898.16;5064970;28;20174;-55
2023/09/27 07:51:23;;;;;;;1999.90;999.90;;;;;;;28.26;100.00;95902.59;5064307;28;20244;-51
2023/09/27 07:53:48;;;;;;;1999.90;999.90;;;;;;;28.46;100.00;95907.22;5064594;28;20183;-56
2023/09/27 07:56:19;;;;;;;1999.90;999.90;;;;;;;28.46;100.00;95907.22;5064992;28;20200;-55
2023/09/27 07:58:45;;;;;;;1999.90;999.90;;;;;;;29.38;100.00;95899.34;5064370;28;20197;-52
2023/09/27 08:01:12;;;;;;;1999.90;999.90;;;;;;;29.04;100.00;95907.06;5064192;28;20193;-53
2023/09/27 08:03:38;;;;;;;1999.90;999.90;;;;;;;29.55;100.00;95909.31;5064393;28;20170;-59
2023/09/27 08:06:04;;;;;;;1999.90;999.90;;;;;;;29.25;100.00;95916.00;5064688;28;20214;-60
2023/09/27 08:08:30;;;;;;;1999.90;999.90;;;;;;;28.65;100.00;95922.38;5064262;28;20280;-49
2023/09/27 08:10:57;;;;;;;1999.90;999.90;;;;;;;28.98;100.00;95925.22;5064871;28;20166;-52
2023/09/27 08:13:25;;;;;;;1999.90;999.90;;;;;;;28.91;100.00;95923.66;5064681;28;20228;-50
2023/09/27 08:15:51;;;;;;;1999.90;999.90;;;;;;;29.23;100.00;95929.81;5064431;28;20201;-52
2023/09/27 08:18:16;;;;;;;1999.90;999.90;;;;;;;29.67;100.00;95921.34;5063792;28;20166;-53
2023/09/27 08:20:42;;;;;;;1999.90;999.90;;;;;;;30.01;100.00;95922.78;5064507;28;20197;-47
2023/09/27 08:23:07;;;;;;;1999.90;999.90;;;;;;;29.89;100.00;95921.25;5064053;28;20244;-49
2023/09/27 08:25:32;;;;;;;1999.90;999.90;;;;;;;30.09;100.00;95921.72;5064478;28;20166;-48
2023/09/27 08:27:58;;;;;;;1999.90;999.90;;;;;;;29.65;100.00;95915.47;5063992;28;20177;-50
2023/09/27 08:30:23;;;;;;;1999.90;999.90;;;;;;;29.86;100.00;95916.69;5063802;28;20174;-47
2023/09/27 08:32:49;;;;;;;1999.90;999.90;;;;;;;30.10;99.58;95916.84;5063787;28;20170;-47
2023/09/27 08:35:15;;;;;;;1999.90;999.90;;;;;;;29.16;100.00;95913.44;5063777;28;20237;-51
2023/09/27 08:37:41;;;;;;;1999.90;999.90;;;;;;;29.43;100.00;95907.03;5064281;28;20170;-46
2023/09/27 08:40:12;;;;;;;1999.90;999.90;;;;;;;28.73;100.00;95909.34;5064362;28;20166;-52
2023/09/27 08:42:39;;;;;;;1999.90;999.90;;;;;;;29.45;100.00;95912.91;5064459;28;20217;-46
2023/09/27 08:45:16;;;;;;;1999.90;999.90;;;;;;;29.32;100.00;95907.06;5063712;28;20176;-48
2023/09/27 08:47:44;;;;;;;1999.90;999.90;;;;;;;29.10;100.00;95905.00;5063424;28;20162;-53
2023/09/27 08:50:14;;;;;;;1999.90;999.90;;;;;;;29.74;100.00;95901.09;5063470;28;20170;-51
2023/09/27 08:52:54;;;;;;;1999.90;999.90;;;;;;;29.96;100.00;95904.59;5064212;28;20215;-52
2023/09/27 08:55:20;;;;;;;1999.90;999.90;;;;;;;30.46;98.88;95910.03;5063728;28;20158;-49
2023/09/27 08:57:47;;;;;;;1999.90;999.90;;;;;;;30.29;96.61;95909.34;5063744;28;20217;-49
2023/09/27 09:00:20;;;;;;;1999.90;999.90;;;;;;;30.33;97.79;95907.78;5064004;28;20216;-47
2023/09/27 09:02:49;;;;;;;1999.90;999.90;;;;;;;30.15;96.23;95901.97;5064055;28;20200;-51
2023/09/27 09:05:16;;;;;;;1999.90;999.90;;;;;;;30.03;100.00;95900.47;5063485;28;20238;-48
2023/09/27 09:07:41;;;;;;;1999.90;999.90;;;;;;;29.75;100.00;95897.00;5063513;28;20204;-51
2023/09/27 09:10:13;;;;;;;1999.90;999.90;;;;;;;29.47;100.00;95887.81;5063529;28;20170;-50
2023/09/27 09:12:39;;;;;;;1999.90;999.90;;;;;;;29.64;100.00;95885.78;5063971;28;20162;-47
2023/09/27 09:15:06;;;;;;;1999.90;999.90;;;;;;;30.09;99.16;95898.41;5063401;28;20181;-46
2023/09/27 09:17:34;;;;;;;1999.90;999.90;;;;;;;30.35;95.24;95893.16;5064051;28;20216;-54
2023/09/27 09:22:54;;;;;;;1999.90;999.90;;;;;;;30.53;93.93;95882.03;5064274;28;20192;-53
2023/09/27 09:25:22;;;;;;;1999.90;999.90;;;;;;;29.67;100.00;95874.22;5063411;28;20174;-53
2023/09/27 09:28:13;;;;;;;1999.90;999.90;;;;;;;30.25;98.21;95883.47;5062984;28;20245;-52
2023/09/27 09:30:40;;;;;;;1999.90;999.90;;;;;;;30.12;98.10;95880.44;5063862;28;20237;-56
2023/09/27 09:33:36;;;;;;;1999.90;999.90;;;;;;;29.55;100.00;95883.19;5063454;28;20249;-54
2023/09/27 09:36:02;;;;;;;1999.90;999.90;;;;;;;29.68;100.00;95880.63;5063720;28;20194;-54
2023/09/27 09:38:30;;;;;;;1999.90;999.90;;;;;;;29.69;100.00;95877.31;5063381;28;20196;-48
2023/09/27 09:41:01;;;;;;;1999.90;999.90;;;;;;;30.03;100.00;95869.47;5063792;28;20177;-53
2023/09/27 09:43:37;;;;;;;1999.90;999.90;;;;;;;29.81;100.00;95878.78;5067497;28;20193;-53
2023/09/27 09:46:08;;;;;;;1999.90;999.90;;;;;;;29.46;100.00;95866.59;5067152;28;20173;-53
2023/09/27 09:48:34;;;;;;;1999.90;999.90;;;;;;;28.20;100.00;95863.22;5067503;28;20167;-53
2023/09/27 09:51:07;;;;;;;1999.90;999.90;;;;;;;28.49;100.00;95869.69;5067287;28;20170;-53
2023/09/27 09:53:38;;;;;;;1999.90;999.90;;;;;;;27.53;100.00;95852.97;5066783;28;20166;-54
2023/09/27 09:56:06;;;;;;;1999.90;999.90;;;;;;;28.06;100.00;95855.78;5067206;28;20162;-58
2023/09/27 09:58:45;;;;;;;1999.90;999.90;;;;;;;28.21;100.00;95858.34;5066604;28;20260;-55
2023/09/27 10:01:18;;;;;;;1999.90;999.90;;;;;;;28.10;100.00;95849.91;5066917;28;20190;-51
2023/09/27 10:03:47;;;;;;;1999.90;999.90;;;;;;;28.13;100.00;95849.66;5067090;28;20170;-48
2023/09/27 10:06:17;;;;;;;1999.90;999.90;;;;;;;28.38;100.00;95847.13;5066758;28;20261;-51
2023/09/27 10:08:44;;;;;;;1999.90;999.90;;;;;;;27.39;100.00;95845.50;5067068;28;20197;-50
2023/09/27 10:11:10;;;;;;;1999.90;999.90;;;;;;;28.33;100.00;95845.09;5066855;28;20190;-55
2023/09/27 10:13:39;;;;;;;1999.90;999.90;;;;;;;28.95;100.00;95853.06;5066497;28;20169;-57
2023/09/27 10:16:04;;;;;;;1999.90;999.90;;;;;;;28.87;100.00;95852.06;5066319;28;20170;-55
2023/09/27 10:18:33;;;;;;;1999.90;999.90;;;;;;;28.87;100.00;95852.06;5066787;28;20170;-53
2023/09/27 10:21:05;;;;;;;1999.90;999.90;;;;;;;28.32;100.00;95837.94;5066606;28;20245;-58
2023/09/27 10:23:33;;;;;;;1999.90;999.90;;;;;;;27.65;100.00;95842.56;5066487;28;20245;-51
2023/09/27 10:26:18;;;;;;;1999.90;999.90;;;;;;;27.11;100.00;95847.38;5065938;28;20216;-51
2023/09/27 10:29:13;;;;;;;1999.90;999.90;;;;;;;27.73;100.00;95835.97;5066765;28;20186;-56
2023/09/27 10:31:54;;;;;;;1999.90;999.90;;;;;;;27.50;100.00;95828.72;5066737;28;20182;-54
2023/09/27 10:34:25;;;;;;;1999.90;999.90;;;;;;;27.21;100.00;95826.25;5066447;28;20174;-54
2023/09/27 10:36:51;;;;;;;1999.90;999.90;;;;;;;26.61;100.00;95825.81;5065942;28;20249;-54
2023/09/27 10:39:17;;;;;;;1999.90;999.90;;;;;;;27.33;100.00;95816.66;5065637;28;20170;-54
2023/09/27 10:41:46;;;;;;;1999.90;999.90;;;;;;;26.59;100.00;95823.50;5065564;28;20294;-54
2023/09/27 10:44:12;;;;;;;1999.90;999.90;;;;;;;27.14;100.00;95811.94;5065739;28;20185;-54
2023/09/27 10:46:48;;;;;;;1999.90;999.90;;;;;;;27.18;100.00;95804.03;5065774;28;20174;-55
2023/09/27 10:49:26;;;;;;;1999.90;999.90;;;;;;;27.87;100.00;95806.94;5065594;28;20170;-53